sensor_id;sensor_type;location;lat;lon;timestamp;temperature;humidity
71096;DHT22;58753;49.440;11.126;2024-01-30T00:01:10;-1.77;90.06
71096;DHT22;58753;49.440;11.126;2024-01-30T00:03:35;-1.80;90.09
71096;DHT22;58753;49.440;11.126;2024-01-30T00:06:03;-1.79;90.21
71096;DHT22;58753;49.440;11.126;2024-01-30T00:08:28;-1.79;90.18
71096;DHT22;58753;49.440;11.126;2024-01-30T00:10:54;-1.79;90.25
71096;DHT22;58753;49.440;11.126;2024-01-30T00:13:19;-1.79;90.28
71096;DHT22;58753;49.440;11.126;2024-01-30T00:15:45;-1.81;90.21
71096;DHT22;58753;49.440;11.126;2024-01-30T00:18:11;-1.84;90.26
71096;DHT22;58753;49.440;11.126;2024-01-30T00:20:36;-1.83;90.39
71096;DHT22;58753;49.440;11.126;2024-01-30T00:23:01;-1.87;90.31
71096;DHT22;58753;49.440;11.126;2024-01-30T00:25:27;-1.90;90.42
71096;DHT22;58753;49.440;11.126;2024-01-30T00:27:52;-1.90;90.40
71096;DHT22;58753;49.440;11.126;2024-01-30T00:30:18;-1.93;90.33
71096;DHT22;58753;49.440;11.126;2024-01-30T00:32:43;-1.98;90.39
71096;DHT22;58753;49.440;11.126;2024-01-30T00:35:09;-2.01;90.62
71096;DHT22;58753;49.440;11.126;2024-01-30T00:37:35;-1.97;90.69
71096;DHT22;58753;49.440;11.126;2024-01-30T00:40:01;-1.98;90.68
71096;DHT22;58753;49.440;11.126;2024-01-30T00:42:26;-2.00;90.66
71096;DHT22;58753;49.440;11.126;2024-01-30T00:44:52;-2.00;90.77
71096;DHT22;58753;49.440;11.126;2024-01-30T00:47:17;-2.02;90.93
71096;DHT22;58753;49.440;11.126;2024-01-30T00:49:43;-1.98;90.85
71096;DHT22;58753;49.440;11.126;2024-01-30T00:52:08;-1.97;90.87
71096;DHT22;58753;49.440;11.126;2024-01-30T00:54:34;-2.00;90.98
71096;DHT22;58753;49.440;11.126;2024-01-30T00:56:59;-1.94;91.05
71096;DHT22;58753;49.440;11.126;2024-01-30T00:59:25;-1.95;90.91
71096;DHT22;58753;49.440;11.126;2024-01-30T01:01:50;-1.97;90.91
71096;DHT22;58753;49.440;11.126;2024-01-30T01:04:16;-1.97;91.12
71096;DHT22;58753;49.440;11.126;2024-01-30T01:06:43;-1.98;90.97
71096;DHT22;58753;49.440;11.126;2024-01-30T01:09:11;-2.01;90.81
71096;DHT22;58753;49.440;11.126;2024-01-30T01:11:36;-2.10;90.52
71096;DHT22;58753;49.440;11.126;2024-01-30T01:14:03;-2.11;91.02
71096;DHT22;58753;49.440;11.126;2024-01-30T01:16:29;-2.08;91.35
71096;DHT22;58753;49.440;11.126;2024-01-30T01:18:55;-2.02;91.35
71096;DHT22;58753;49.440;11.126;2024-01-30T01:21:20;-2.01;91.34
71096;DHT22;58753;49.440;11.126;2024-01-30T01:23:45;-2.01;91.14
71096;DHT22;58753;49.440;11.126;2024-01-30T01:26:11;-2.02;91.18
71096;DHT22;58753;49.440;11.126;2024-01-30T01:28:36;-2.01;91.17
71096;DHT22;58753;49.440;11.126;2024-01-30T01:31:02;-2.02;91.19
71096;DHT22;58753;49.440;11.126;2024-01-30T01:33:33;-2.01;91.30
71096;DHT22;58753;49.440;11.126;2024-01-30T01:36:00;-2.02;91.36
71096;DHT22;58753;49.440;11.126;2024-01-30T01:38:28;-2.04;91.24
71096;DHT22;58753;49.440;11.126;2024-01-30T01:40:53;-2.07;91.15
71096;DHT22;58753;49.440;11.126;2024-01-30T01:43:19;-2.05;91.33
71096;DHT22;58753;49.440;11.126;2024-01-30T01:45:45;-2.02;91.34
71096;DHT22;58753;49.440;11.126;2024-01-30T01:48:11;-2.04;91.24
71096;DHT22;58753;49.440;11.126;2024-01-30T01:50:38;-2.08;91.29
71096;DHT22;58753;49.440;11.126;2024-01-30T01:53:07;-2.07;91.34
71096;DHT22;58753;49.440;11.126;2024-01-30T01:55:34;-2.04;91.45
71096;DHT22;58753;49.440;11.126;2024-01-30T01:58:00;-2.04;91.45
71096;DHT22;58753;49.440;11.126;2024-01-30T02:00:27;-2.05;91.42
71096;DHT22;58753;49.440;11.126;2024-01-30T02:02:54;-2.04;91.47
71096;DHT22;58753;49.440;11.126;2024-01-30T02:05:21;-2.01;91.58
71096;DHT22;58753;49.440;11.126;2024-01-30T02:07:46;-2.04;91.45
71096;DHT22;58753;49.440;11.126;2024-01-30T02:10:12;-2.02;91.34
71096;DHT22;58753;49.440;11.126;2024-01-30T02:12:38;-2.02;91.40
71096;DHT22;58753;49.440;11.126;2024-01-30T02:15:04;-2.04;91.37
71096;DHT22;58753;49.440;11.126;2024-01-30T02:17:30;-2.05;91.39
71096;DHT22;58753;49.440;11.126;2024-01-30T02:19:56;-2.01;91.56
71096;DHT22;58753;49.440;11.126;2024-01-30T02:22:22;-1.98;91.58
71096;DHT22;58753;49.440;11.126;2024-01-30T02:24:47;-1.94;91.70
71096;DHT22;58753;49.440;11.126;2024-01-30T02:27:13;-1.91;91.67
71096;DHT22;58753;49.440;11.126;2024-01-30T02:29:38;-1.91;91.49
71096;DHT22;58753;49.440;11.126;2024-01-30T02:32:04;-1.93;91.19
71096;DHT22;58753;49.440;11.126;2024-01-30T02:34:30;-1.94;91.22
71096;DHT22;58753;49.440;11.126;2024-01-30T02:36:56;-1.91;91.45
71096;DHT22;58753;49.440;11.126;2024-01-30T02:39:21;-1.90;91.28
71096;DHT22;58753;49.440;11.126;2024-01-30T02:41:47;-1.89;91.44
71096;DHT22;58753;49.440;11.126;2024-01-30T02:44:12;-1.86;91.46
71096;DHT22;58753;49.440;11.126;2024-01-30T02:46:37;-1.81;91.56
71096;DHT22;58753;49.440;11.126;2024-01-30T02:49:03;-1.79;91.59
71096;DHT22;58753;49.440;11.126;2024-01-30T02:51:28;-1.77;91.54
71096;DHT22;58753;49.440;11.126;2024-01-30T02:53:54;-1.77;91.28
71096;DHT22;58753;49.440;11.126;2024-01-30T02:56:19;-1.76;91.18
71096;DHT22;58753;49.440;11.126;2024-01-30T02:58:44;-1.73;91.27
71096;DHT22;58753;49.440;11.126;2024-01-30T03:01:10;-1.70;91.30
71096;DHT22;58753;49.440;11.126;2024-01-30T03:03:35;-1.69;91.35
71096;DHT22;58753;49.440;11.126;2024-01-30T03:06:01;-1.70;91.40
71096;DHT22;58753;49.440;11.126;2024-01-30T03:08:27;-1.66;91.35
71096;DHT22;58753;49.440;11.126;2024-01-30T03:10:52;-1.67;91.29
71096;DHT22;58753;49.440;11.126;2024-01-30T03:13:17;-1.69;91.28
71096;DHT22;58753;49.440;11.126;2024-01-30T03:15:43;-1.70;91.22
71096;DHT22;58753;49.440;11.126;2024-01-30T03:18:08;-1.71;91.15
71096;DHT22;58753;49.440;11.126;2024-01-30T03:20:34;-1.74;91.14
71096;DHT22;58753;49.440;11.126;2024-01-30T03:23:00;-1.79;91.20
71096;DHT22;58753;49.440;11.126;2024-01-30T03:25:25;-1.77;91.29
71096;DHT22;58753;49.440;11.126;2024-01-30T03:27:50;-1.79;91.39
71096;DHT22;58753;49.440;11.126;2024-01-30T03:30:16;-1.76;91.45
71096;DHT22;58753;49.440;11.126;2024-01-30T03:32:42;-1.77;91.34
71096;DHT22;58753;49.440;11.126;2024-01-30T03:35:08;-1.79;91.31
71096;DHT22;58753;49.440;11.126;2024-01-30T03:37:33;-1.83;91.20
71096;DHT22;58753;49.440;11.126;2024-01-30T03:39:59;-1.84;91.37
71096;DHT22;58753;49.440;11.126;2024-01-30T03:42:24;-1.87;91.20
71096;DHT22;58753;49.440;11.126;2024-01-30T03:44:50;-1.89;91.41
71096;DHT22;58753;49.440;11.126;2024-01-30T03:47:19;-1.93;91.37
71096;DHT22;58753;49.440;11.126;2024-01-30T03:49:45;-1.91;91.32
71096;DHT22;58753;49.440;11.126;2024-01-30T03:52:10;-1.95;91.35
71096;DHT22;58753;49.440;11.126;2024-01-30T03:54:35;-1.91;91.51
71096;DHT22;58753;49.440;11.126;2024-01-30T03:57:01;-1.90;91.66
71096;DHT22;58753;49.440;11.126;2024-01-30T03:59:27;-1.87;91.47
71096;DHT22;58753;49.440;11.126;2024-01-30T04:01:52;-1.91;91.55
71096;DHT22;58753;49.440;11.126;2024-01-30T04:04:18;-1.87;91.55
71096;DHT22;58753;49.440;11.126;2024-01-30T04:06:44;-1.89;91.69
71096;DHT22;58753;49.440;11.126;2024-01-30T04:09:10;-1.89;91.64
71096;DHT22;58753;49.440;11.126;2024-01-30T04:11:36;-1.86;91.61
71096;DHT22;58753;49.440;11.126;2024-01-30T04:14:02;-1.87;91.66
71096;DHT22;58753;49.440;11.126;2024-01-30T04:16:27;-1.87;91.60
71096;DHT22;58753;49.440;11.126;2024-01-30T04:18:52;-1.89;91.61
71096;DHT22;58753;49.440;11.126;2024-01-30T04:21:18;-1.87;91.74
71096;DHT22;58753;49.440;11.126;2024-01-30T04:23:43;-1.84;91.73
71096;DHT22;58753;49.440;11.126;2024-01-30T04:26:09;-1.84;91.73
71096;DHT22;58753;49.440;11.126;2024-01-30T04:28:34;-1.80;91.74
71096;DHT22;58753;49.440;11.126;2024-01-30T04:31:00;-1.83;91.65
71096;DHT22;58753;49.440;11.126;2024-01-30T04:33:25;-1.80;91.78
71096;DHT22;58753;49.440;11.126;2024-01-30T04:35:51;-1.80;91.77
71096;DHT22;58753;49.440;11.126;2024-01-30T04:38:17;-1.79;91.84
71096;DHT22;58753;49.440;11.126;2024-01-30T04:40:42;-1.77;91.81
71096;DHT22;58753;49.440;11.126;2024-01-30T04:43:08;-1.76;91.74
71096;DHT22;58753;49.440;11.126;2024-01-30T04:45:33;-1.74;91.79
71096;DHT22;58753;49.440;11.126;2024-01-30T04:47:58;-1.71;91.77
71096;DHT22;58753;49.440;11.126;2024-01-30T04:50:24;-1.71;91.79
71096;DHT22;58753;49.440;11.126;2024-01-30T04:52:49;-1.70;91.89
71096;DHT22;58753;49.440;11.126;2024-01-30T04:55:15;-1.67;91.89
71096;DHT22;58753;49.440;11.126;2024-01-30T04:57:40;-1.66;91.81
71096;DHT22;58753;49.440;11.126;2024-01-30T05:00:06;-1.63;91.87
71096;DHT22;58753;49.440;11.126;2024-01-30T05:02:32;-1.63;91.70
71096;DHT22;58753;49.440;11.126;2024-01-30T05:04:57;-1.60;91.80
71096;DHT22;58753;49.440;11.126;2024-01-30T05:07:24;-1.60;91.86
71096;DHT22;58753;49.440;11.126;2024-01-30T05:09:50;-1.56;91.78
71096;DHT22;58753;49.440;11.126;2024-01-30T05:12:15;-1.55;91.80
71096;DHT22;58753;49.440;11.126;2024-01-30T05:14:40;-1.55;91.81
71096;DHT22;58753;49.440;11.126;2024-01-30T05:17:06;-1.53;91.76
71096;DHT22;58753;49.440;11.126;2024-01-30T05:19:33;-1.56;91.71
71096;DHT22;58753;49.440;11.126;2024-01-30T05:21:58;-1.56;91.73
71096;DHT22;58753;49.440;11.126;2024-01-30T05:24:23;-1.53;91.74
71096;DHT22;58753;49.440;11.126;2024-01-30T05:26:49;-1.55;91.76
71096;DHT22;58753;49.440;11.126;2024-01-30T05:29:16;-1.55;91.82
71096;DHT22;58753;49.440;11.126;2024-01-30T05:31:41;-1.53;91.87
71096;DHT22;58753;49.440;11.126;2024-01-30T05:34:07;-1.55;91.82
71096;DHT22;58753;49.440;11.126;2024-01-30T05:36:34;-1.55;91.84
71096;DHT22;58753;49.440;11.126;2024-01-30T05:38:59;-1.55;91.92
71096;DHT22;58753;49.440;11.126;2024-01-30T05:41:25;-1.52;91.91
71096;DHT22;58753;49.440;11.126;2024-01-30T05:43:50;-1.50;91.88
71096;DHT22;58753;49.440;11.126;2024-01-30T05:46:15;-1.49;91.98
71096;DHT22;58753;49.440;11.126;2024-01-30T05:48:41;-1.50;91.96
71096;DHT22;58753;49.440;11.126;2024-01-30T05:51:09;-1.52;91.88
71096;DHT22;58753;49.440;11.126;2024-01-30T05:53:35;-1.52;91.92
71096;DHT22;58753;49.440;11.126;2024-01-30T05:56:04;-1.53;92.04
71096;DHT22;58753;49.440;11.126;2024-01-30T05:58:29;-1.49;92.04
71096;DHT22;58753;49.440;11.126;2024-01-30T06:00:56;-1.47;92.16
71096;DHT22;58753;49.440;11.126;2024-01-30T06:03:22;-1.49;92.14
71096;DHT22;58753;49.440;11.126;2024-01-30T06:05:48;-1.49;92.15
71096;DHT22;58753;49.440;11.126;2024-01-30T06:08:13;-1.46;92.20
71096;DHT22;58753;49.440;11.126;2024-01-30T06:10:39;-1.47;92.15
71096;DHT22;58753;49.440;11.126;2024-01-30T06:13:04;-1.45;92.06
71096;DHT22;58753;49.440;11.126;2024-01-30T06:15:30;-1.43;92.19
71096;DHT22;58753;49.440;11.126;2024-01-30T06:17:55;-1.46;92.09
71096;DHT22;58753;49.440;11.126;2024-01-30T06:20:21;-1.45;92.22
71096;DHT22;58753;49.440;11.126;2024-01-30T06:22:46;-1.43;92.34
71096;DHT22;58753;49.440;11.126;2024-01-30T06:25:12;-1.42;92.23
71096;DHT22;58753;49.440;11.126;2024-01-30T06:27:37;-1.39;92.31
71096;DHT22;58753;49.440;11.126;2024-01-30T06:30:04;-1.39;92.33
71096;DHT22;58753;49.440;11.126;2024-01-30T06:32:30;-1.35;92.27
71096;DHT22;58753;49.440;11.126;2024-01-30T06:35:00;-1.38;92.18
71096;DHT22;58753;49.440;11.126;2024-01-30T06:37:25;-1.38;92.05
71096;DHT22;58753;49.440;11.126;2024-01-30T06:39:51;-1.36;92.30
71096;DHT22;58753;49.440;11.126;2024-01-30T06:42:18;-1.35;92.30
71096;DHT22;58753;49.440;11.126;2024-01-30T06:44:43;-1.31;92.36
71096;DHT22;58753;49.440;11.126;2024-01-30T06:47:09;-1.32;92.28
71096;DHT22;58753;49.440;11.126;2024-01-30T06:49:34;-1.31;92.15
71096;DHT22;58753;49.440;11.126;2024-01-30T06:52:00;-1.36;92.16
71096;DHT22;58753;49.440;11.126;2024-01-30T06:54:25;-1.36;92.17
71096;DHT22;58753;49.440;11.126;2024-01-30T06:56:51;-1.35;92.30
71096;DHT22;58753;49.440;11.126;2024-01-30T06:59:16;-1.34;92.37
71096;DHT22;58753;49.440;11.126;2024-01-30T07:01:41;-1.38;92.25
71096;DHT22;58753;49.440;11.126;2024-01-30T07:04:07;-1.39;92.28
71096;DHT22;58753;49.440;11.126;2024-01-30T07:06:32;-1.39;92.34
71096;DHT22;58753;49.440;11.126;2024-01-30T07:08:58;-1.40;92.35
71096;DHT22;58753;49.440;11.126;2024-01-30T07:11:23;-1.39;92.39
71096;DHT22;58753;49.440;11.126;2024-01-30T07:13:50;-1.38;92.37
71096;DHT22;58753;49.440;11.126;2024-01-30T07:16:16;-1.38;92.44
71096;DHT22;58753;49.440;11.126;2024-01-30T07:18:41;-1.38;92.45
71096;DHT22;58753;49.440;11.126;2024-01-30T07:21:07;-1.34;92.52
71096;DHT22;58753;49.440;11.126;2024-01-30T07:23:32;-1.32;92.51
71096;DHT22;58753;49.440;11.126;2024-01-30T07:25:59;-1.29;92.47
71096;DHT22;58753;49.440;11.126;2024-01-30T07:28:24;-1.28;92.52
71096;DHT22;58753;49.440;11.126;2024-01-30T07:30:50;-1.24;92.49
71096;DHT22;58753;49.440;11.126;2024-01-30T07:33:15;-1.19;92.49
71096;DHT22;58753;49.440;11.126;2024-01-30T07:35:41;-1.18;92.47
71096;DHT22;58753;49.440;11.126;2024-01-30T07:38:06;-1.16;92.32
71096;DHT22;58753;49.440;11.126;2024-01-30T07:40:32;-1.11;92.43
71096;DHT22;58753;49.440;11.126;2024-01-30T07:42:58;-1.06;92.43
71096;DHT22;58753;49.440;11.126;2024-01-30T07:45:24;-0.99;92.48
71096;DHT22;58753;49.440;11.126;2024-01-30T07:47:51;-0.94;92.34
71096;DHT22;58753;49.440;11.126;2024-01-30T07:50:17;-0.89;92.34
71096;DHT22;58753;49.440;11.126;2024-01-30T07:52:43;-0.83;92.39
71096;DHT22;58753;49.440;11.126;2024-01-30T07:55:08;-0.77;92.32
71096;DHT22;58753;49.440;11.126;2024-01-30T07:57:34;-0.67;92.26
71096;DHT22;58753;49.440;11.126;2024-01-30T08:00:00;-0.65;92.26
71096;DHT22;58753;49.440;11.126;2024-01-30T08:02:25;-0.56;92.17
71096;DHT22;58753;49.440;11.126;2024-01-30T08:04:51;-0.51;92.22
71096;DHT22;58753;49.440;11.126;2024-01-30T08:07:16;-0.44;92.16
71096;DHT22;58753;49.440;11.126;2024-01-30T08:09:43;-0.38;92.14
71096;DHT22;58753;49.440;11.126;2024-01-30T08:12:09;-0.31;92.05
71096;DHT22;58753;49.440;11.126;2024-01-30T08:14:34;-0.24;92.01
71096;DHT22;58753;49.440;11.126;2024-01-30T08:17:00;-0.16;91.93
71096;DHT22;58753;49.440;11.126;2024-01-30T08:19:25;-0.10;91.82
71096;DHT22;58753;49.440;11.126;2024-01-30T08:21:50;-0.07;91.68
71096;DHT22;58753;49.440;11.126;2024-01-30T08:24:16;0.00;91.75
71096;DHT22;58753;49.440;11.126;2024-01-30T08:26:41;0.08;91.66
71096;DHT22;58753;49.440;11.126;2024-01-30T08:29:07;0.12;91.67
71096;DHT22;58753;49.440;11.126;2024-01-30T08:31:33;0.21;91.60
71096;DHT22;58753;49.440;11.126;2024-01-30T08:33:58;0.29;91.57
71096;DHT22;58753;49.440;11.126;2024-01-30T08:36:23;0.38;91.46
71096;DHT22;58753;49.440;11.126;2024-01-30T08:38:49;0.48;91.37
71096;DHT22;58753;49.440;11.126;2024-01-30T08:41:14;0.55;91.39
71096;DHT22;58753;49.440;11.126;2024-01-30T08:43:40;0.66;91.21
71096;DHT22;58753;49.440;11.126;2024-01-30T08:46:05;0.76;91.23
71096;DHT22;58753;49.440;11.126;2024-01-30T08:48:31;0.86;91.11
71096;DHT22;58753;49.440;11.126;2024-01-30T08:50:56;0.95;91.06
71096;DHT22;58753;49.440;11.126;2024-01-30T08:53:21;1.04;90.97
71096;DHT22;58753;49.440;11.126;2024-01-30T08:55:47;1.15;90.89
71096;DHT22;58753;49.440;11.126;2024-01-30T08:58:12;1.26;90.82
71096;DHT22;58753;49.440;11.126;2024-01-30T09:00:38;1.37;90.73
71096;DHT22;58753;49.440;11.126;2024-01-30T09:03:04;1.47;90.67
71096;DHT22;58753;49.440;11.126;2024-01-30T09:05:29;1.58;90.53
71096;DHT22;58753;49.440;11.126;2024-01-30T09:07:55;1.68;90.42
71096;DHT22;58753;49.440;11.126;2024-01-30T09:10:21;1.78;90.29
71096;DHT22;58753;49.440;11.126;2024-01-30T09:12:47;1.91;90.22
71096;DHT22;58753;49.440;11.126;2024-01-30T09:15:12;2.01;90.02
71096;DHT22;58753;49.440;11.126;2024-01-30T09:17:38;2.12;89.85
71096;DHT22;58753;49.440;11.126;2024-01-30T09:20:04;2.23;89.81
71096;DHT22;58753;49.440;11.126;2024-01-30T09:22:30;2.32;89.70
71096;DHT22;58753;49.440;11.126;2024-01-30T09:24:55;2.44;89.55
71096;DHT22;58753;49.440;11.126;2024-01-30T09:27:20;2.56;89.47
71096;DHT22;58753;49.440;11.126;2024-01-30T09:29:46;2.67;89.25
71096;DHT22;58753;49.440;11.126;2024-01-30T09:32:11;2.80;89.14
71096;DHT22;58753;49.440;11.126;2024-01-30T09:34:37;2.93;88.94
71096;DHT22;58753;49.440;11.126;2024-01-30T09:37:02;3.07;88.73
71096;DHT22;58753;49.440;11.126;2024-01-30T09:39:28;3.18;88.54
71096;DHT22;58753;49.440;11.126;2024-01-30T09:42:18;3.32;88.23
71096;DHT22;58753;49.440;11.126;2024-01-30T09:44:47;3.48;88.16
71096;DHT22;58753;49.440;11.126;2024-01-30T09:47:15;3.69;87.81
71096;DHT22;58753;49.440;11.126;2024-01-30T09:49:43;3.86;87.11
71096;DHT22;58753;49.440;11.126;2024-01-30T09:52:08;4.06;86.53
71096;DHT22;58753;49.440;11.126;2024-01-30T09:54:34;4.14;86.03
71096;DHT22;58753;49.440;11.126;2024-01-30T09:57:01;4.25;85.70
71096;DHT22;58753;49.440;11.126;2024-01-30T09:59:26;4.38;85.17
71096;DHT22;58753;49.440;11.126;2024-01-30T10:01:51;4.47;84.73
71096;DHT22;58753;49.440;11.126;2024-01-30T10:04:17;4.57;84.50
71096;DHT22;58753;49.440;11.126;2024-01-30T10:06:43;4.69;84.16
71096;DHT22;58753;49.440;11.126;2024-01-30T10:09:09;4.75;83.72
71096;DHT22;58753;49.440;11.126;2024-01-30T10:11:35;4.85;83.41
71096;DHT22;58753;49.440;11.126;2024-01-30T10:14:01;4.95;82.84
71096;DHT22;58753;49.440;11.126;2024-01-30T10:16:27;5.06;82.63
71096;DHT22;58753;49.440;11.126;2024-01-30T10:18:52;5.13;82.00
71096;DHT22;58753;49.440;11.126;2024-01-30T10:21:18;5.22;81.79
71096;DHT22;58753;49.440;11.126;2024-01-30T10:23:43;5.28;81.38
71096;DHT22;58753;49.440;11.126;2024-01-30T10:26:10;5.33;80.84
71096;DHT22;58753;49.440;11.126;2024-01-30T10:28:35;5.42;80.60
71096;DHT22;58753;49.440;11.126;2024-01-30T10:31:01;5.46;80.32
71096;DHT22;58753;49.440;11.126;2024-01-30T10:33:29;5.49;79.96
71096;DHT22;58753;49.440;11.126;2024-01-30T10:36:00;5.56;79.67
71096;DHT22;58753;49.440;11.126;2024-01-30T10:38:29;5.66;79.55
71096;DHT22;58753;49.440;11.126;2024-01-30T10:40:58;5.75;79.23
71096;DHT22;58753;49.440;11.126;2024-01-30T10:43:38;5.86;78.36
71096;DHT22;58753;49.440;11.126;2024-01-30T10:46:25;6.01;78.23
71096;DHT22;58753;49.440;11.126;2024-01-30T10:48:58;6.11;77.84
71096;DHT22;58753;49.440;11.126;2024-01-30T10:51:28;6.21;77.59
71096;DHT22;58753;49.440;11.126;2024-01-30T10:53:55;6.26;77.20
71096;DHT22;58753;49.440;11.126;2024-01-30T10:56:21;6.35;76.84
71096;DHT22;58753;49.440;11.126;2024-01-30T10:58:51;6.44;76.28
71096;DHT22;58753;49.440;11.126;2024-01-30T11:01:22;6.55;75.89
71096;DHT22;58753;49.440;11.126;2024-01-30T11:03:51;6.63;75.41
71096;DHT22;58753;49.440;11.126;2024-01-30T11:06:18;6.71;74.72
71096;DHT22;58753;49.440;11.126;2024-01-30T11:08:46;6.76;74.30
71096;DHT22;58753;49.440;11.126;2024-01-30T11:11:25;6.80;73.75
71096;DHT22;58753;49.440;11.126;2024-01-30T11:13:50;6.87;73.06
71096;DHT22;58753;49.440;11.126;2024-01-30T11:16:15;6.95;72.68
71096;DHT22;58753;49.440;11.126;2024-01-30T11:18:41;6.96;72.41
71096;DHT22;58753;49.440;11.126;2024-01-30T11:21:06;6.97;72.22
71096;DHT22;58753;49.440;11.126;2024-01-30T11:23:33;6.97;71.93
71096;DHT22;58753;49.440;11.126;2024-01-30T11:25:59;7.01;71.72
71096;DHT22;58753;49.440;11.126;2024-01-30T11:28:32;7.07;71.40
71096;DHT22;58753;49.440;11.126;2024-01-30T11:31:03;7.17;71.08
71096;DHT22;58753;49.440;11.126;2024-01-30T11:33:29;7.26;70.70
71096;DHT22;58753;49.440;11.126;2024-01-30T11:35:59;7.31;69.95
71096;DHT22;58753;49.440;11.126;2024-01-30T11:38:26;7.43;69.89
71096;DHT22;58753;49.440;11.126;2024-01-30T11:40:54;7.54;69.58
71096;DHT22;58753;49.440;11.126;2024-01-30T11:43:21;7.70;69.42
71096;DHT22;58753;49.440;11.126;2024-01-30T11:45:46;7.78;69.16
71096;DHT22;58753;49.440;11.126;2024-01-30T11:48:12;7.83;68.68
71096;DHT22;58753;49.440;11.126;2024-01-30T11:50:39;7.83;68.65
71096;DHT22;58753;49.440;11.126;2024-01-30T11:53:06;7.96;68.48
71096;DHT22;58753;49.440;11.126;2024-01-30T11:55:32;7.96;68.31
71096;DHT22;58753;49.440;11.126;2024-01-30T11:57:58;7.92;68.02
71096;DHT22;58753;49.440;11.126;2024-01-30T12:00:24;7.93;67.89
71096;DHT22;58753;49.440;11.126;2024-01-30T12:02:51;7.93;67.73
71096;DHT22;58753;49.440;11.126;2024-01-30T12:05:19;7.93;67.59
71096;DHT22;58753;49.440;11.126;2024-01-30T12:07:45;7.98;67.63
71096;DHT22;58753;49.440;11.126;2024-01-30T12:10:12;8.01;67.53
71096;DHT22;58753;49.440;11.126;2024-01-30T12:12:39;8.09;67.57
71096;DHT22;58753;49.440;11.126;2024-01-30T12:15:06;8.19;67.70
71096;DHT22;58753;49.440;11.126;2024-01-30T12:17:33;8.43;67.76
71096;DHT22;58753;49.440;11.126;2024-01-30T12:20:09;8.57;67.36
71096;DHT22;58753;49.440;11.126;2024-01-30T12:22:40;8.64;67.21
71096;DHT22;58753;49.440;11.126;2024-01-30T12:25:16;8.78;67.21
71096;DHT22;58753;49.440;11.126;2024-01-30T12:27:43;8.94;66.92
71096;DHT22;58753;49.440;11.126;2024-01-30T12:30:13;9.05;66.72
71096;DHT22;58753;49.440;11.126;2024-01-30T12:32:40;9.08;66.40
71096;DHT22;58753;49.440;11.126;2024-01-30T12:35:11;9.10;66.20
71096;DHT22;58753;49.440;11.126;2024-01-30T12:37:37;9.08;66.07
71096;DHT22;58753;49.440;11.126;2024-01-30T12:40:03;9.12;65.87
71096;DHT22;58753;49.440;11.126;2024-01-30T12:42:29;9.17;65.76
71096;DHT22;58753;49.440;11.126;2024-01-30T12:44:57;9.17;65.32
71096;DHT22;58753;49.440;11.126;2024-01-30T12:47:23;9.17;64.99
71096;DHT22;58753;49.440;11.126;2024-01-30T12:49:48;9.22;64.74
71096;DHT22;58753;49.440;11.126;2024-01-30T12:52:16;9.21;64.25
71096;DHT22;58753;49.440;11.126;2024-01-30T12:54:41;9.29;64.27
71096;DHT22;58753;49.440;11.126;2024-01-30T12:57:07;9.32;63.76
71096;DHT22;58753;49.440;11.126;2024-01-30T12:59:32;9.35;63.48
71096;DHT22;58753;49.440;11.126;2024-01-30T13:02:00;9.38;63.59
71096;DHT22;58753;49.440;11.126;2024-01-30T13:04:26;9.48;63.26
71096;DHT22;58753;49.440;11.126;2024-01-30T13:06:52;9.53;63.08
71096;DHT22;58753;49.440;11.126;2024-01-30T13:09:18;9.59;62.83
71096;DHT22;58753;49.440;11.126;2024-01-30T13:11:43;9.79;62.93
71096;DHT22;58753;49.440;11.126;2024-01-30T13:14:08;9.87;62.37
71096;DHT22;58753;49.440;11.126;2024-01-30T13:16:34;9.96;62.23
71096;DHT22;58753;49.440;11.126;2024-01-30T13:18:59;9.94;61.67
71096;DHT22;58753;49.440;11.126;2024-01-30T13:21:27;9.99;61.58
71096;DHT22;58753;49.440;11.126;2024-01-30T13:23:52;10.03;61.63
71096;DHT22;58753;49.440;11.126;2024-01-30T13:26:22;10.04;61.38
71096;DHT22;58753;49.440;11.126;2024-01-30T13:28:48;10.07;61.34
71096;DHT22;58753;49.440;11.126;2024-01-30T13:31:17;10.04;61.00
71096;DHT22;58753;49.440;11.126;2024-01-30T13:33:43;10.00;60.93
71096;DHT22;58753;49.440;11.126;2024-01-30T13:36:10;9.96;61.19
71096;DHT22;58753;49.440;11.126;2024-01-30T13:38:36;9.94;61.26
71096;DHT22;58753;49.440;11.126;2024-01-30T13:41:02;9.93;61.05
71096;DHT22;58753;49.440;11.126;2024-01-30T13:43:28;9.89;61.31
71096;DHT22;58753;49.440;11.126;2024-01-30T13:45:53;9.86;61.45
71096;DHT22;58753;49.440;11.126;2024-01-30T13:48:19;9.85;61.49
71096;DHT22;58753;49.440;11.126;2024-01-30T13:50:44;9.80;61.48
71096;DHT22;58753;49.440;11.126;2024-01-30T13:53:11;9.79;61.59
71096;DHT22;58753;49.440;11.126;2024-01-30T13:55:36;9.76;61.71
71096;DHT22;58753;49.440;11.126;2024-01-30T13:58:02;9.72;61.76
71096;DHT22;58753;49.440;11.126;2024-01-30T14:00:30;9.75;61.83
71096;DHT22;58753;49.440;11.126;2024-01-30T14:02:55;9.73;61.98
71096;DHT22;58753;49.440;11.126;2024-01-30T14:05:22;9.73;62.06
71096;DHT22;58753;49.440;11.126;2024-01-30T14:07:48;9.72;62.08
71096;DHT22;58753;49.440;11.126;2024-01-30T14:10:14;9.68;62.16
71096;DHT22;58753;49.440;11.126;2024-01-30T14:12:39;9.62;62.21
71096;DHT22;58753;49.440;11.126;2024-01-30T14:15:06;9.60;62.31
71096;DHT22;58753;49.440;11.126;2024-01-30T14:17:31;9.56;62.28
71096;DHT22;58753;49.440;11.126;2024-01-30T14:19:57;9.53;62.33
71096;DHT22;58753;49.440;11.126;2024-01-30T14:22:22;9.50;62.34
71096;DHT22;58753;49.440;11.126;2024-01-30T14:24:48;9.46;62.29
71096;DHT22;58753;49.440;11.126;2024-01-30T14:27:13;9.40;62.37
71096;DHT22;58753;49.440;11.126;2024-01-30T14:29:39;9.35;62.44
71096;DHT22;58753;49.440;11.126;2024-01-30T14:32:04;9.29;62.55
71096;DHT22;58753;49.440;11.126;2024-01-30T14:34:30;9.24;62.55
71096;DHT22;58753;49.440;11.126;2024-01-30T14:36:55;9.19;62.73
71096;DHT22;58753;49.440;11.126;2024-01-30T14:39:21;9.14;62.84
71096;DHT22;58753;49.440;11.126;2024-01-30T14:41:47;9.11;62.90
71096;DHT22;58753;49.440;11.126;2024-01-30T14:44:12;9.03;62.76
71096;DHT22;58753;49.440;11.126;2024-01-30T14:46:39;8.96;62.77
71096;DHT22;58753;49.440;11.126;2024-01-30T14:49:05;8.89;62.80
71096;DHT22;58753;49.440;11.126;2024-01-30T14:51:31;8.84;62.87
71096;DHT22;58753;49.440;11.126;2024-01-30T14:53:59;8.77;62.97
71096;DHT22;58753;49.440;11.126;2024-01-30T14:56:24;8.74;63.12
71096;DHT22;58753;49.440;11.126;2024-01-30T14:58:49;8.67;63.13
71096;DHT22;58753;49.440;11.126;2024-01-30T15:01:15;8.60;63.16
71096;DHT22;58753;49.440;11.126;2024-01-30T15:03:40;8.56;63.33
71096;DHT22;58753;49.440;11.126;2024-01-30T15:06:07;8.52;63.46
71096;DHT22;58753;49.440;11.126;2024-01-30T15:08:33;8.40;63.62
71096;DHT22;58753;49.440;11.126;2024-01-30T15:10:59;8.34;64.01
71096;DHT22;58753;49.440;11.126;2024-01-30T15:13:24;8.29;64.29
71096;DHT22;58753;49.440;11.126;2024-01-30T15:15:49;8.19;64.48